Station: Murray Bridge

  Atmospheric Gas Attenuation - ITU Rec 676-11   --------------- db/100km ---------------
Date Time Temp RH % AH g/m3 Dew Point Wind Direction Speed kph Gust kph Barometer mB Rainfall Since 9am 24GHz 47GHz 76GHz 122GHz 134GHz 241GHz
02 09:00 18.6 77 12.25 14.5 15 1013.1 0 27.1 30.4 52.1 137.4 140.6 486.7
01 09:00 20.9 70 12.75 15.2 11 1013.1 0 28.0 30.5 52.7 138.9 143.3 496.4
30 09:00 25 33 7.6 7.9 11 1013.1 0 17.0 21.5 31.3 81.8 74.2 255.2
29 09:00 19.9 63 10.82 12.6 4 1013.1 0 24.0 27.6 45.4 119.5 119.1 411.6
28 09:00 17.8 61 9.26 10.3 4 1013.1 0 20.8 25.8 40.4 106.1 101.8 351.0
27 09:00 15.7 70 9.37 10.2 4 1013.1 0 21.1 26.6 41.9 110.1 106.1 365.6
26 09:00 15 48 6.15 4.2 44 1013.1 0.1 14.3 21.8 30.0 78.2 66.5 226.7
25 09:00 16.2 90 12.41 14.5 30 1013.1 6 27.6 31.6 54.5 143.6 147.5 510.2
24 09:00 18.9 98 15.88 18.6 4 1013.1 7 34.9 36.9 68.2 180.3 193.5 671.2
23 09:00 18.8 75 12.08 14.3 4 1013.1 0.1 26.7 30.1 51.3 135.1 137.9 477.2
22 09:00 14.4 68 8.41 8.7 4 1013.1 0 19.2 25.4 38.7 101.6 95.2 327.2
21 09:00 15.2 59 7.66 7.3 4 1013.1 0 17.5 24.0 35.5 92.9 84.7 290.6
20 09:00 12.3 87 9.45 10.2 7 1013.1 5 21.5 27.8 44.1 115.9 112.0 385.7
19 09:00 14.5 74 9.2 9.9 4 1013.1 0 20.8 26.7 41.9 109.9 105.4 363.2
18 09:00 23.9 27 5.84 3.7 22 1013.1 0 13.4 19.4 25.9 67.5 56.3 192.1
17 09:00 15 52 6.67 5.3 7 1013.1 0 15.4 22.6 31.9 83.2 72.7 248.6
16 09:00 13.4 62 7.21 6.3 0 1013.1 2 16.6 23.8 34.5 90.4 80.9 277.2
15 09:00 13 70 7.94 7.7 22 1013.1 0.3 18.2 25.1 37.5 98.4 90.7 311.4
14 09:00 13.2 61 7 6 22 1013.1 1 16.2 23.5 33.8 88.5 78.5 268.6
13 09:00 13.8 61 7.27 6.5 22 1013.1 4 16.8 23.8 34.6 90.5 81.2 278.4
12 09:00 13.2 77 8.84 9.3 30 1013.1 8 20.1 26.5 41.1 107.8 102.4 352.3
11 09:00 12.9 54 6.09 3.8 15 1013.1 0 14.3 22.2 30.5 79.7 67.5 230.2
10 09:00 14.1 59 7.16 6.2 11 1013.1 1 16.5 23.5 34.0 89.1 79.6 272.6
09 09:00 15.9 63 8.53 8.9 0 1013.1 0 19.3 25.2 38.5 101.0 94.9 326.4
08 09:00 15.3 62 8.1 8.2 4 1013.1 0 18.5 24.7 37.1 97.3 90.1 309.6
07 09:00 14.8 77 9.75 10.8 4 1013.1 4 22.0 27.5 43.9 115.5 112.4 387.7
06 09:00 21.2 75 13.9 16.6 0 1013.1 0.8 30.4 32.4 57.4 151.4 158.8 550.4
05 09:00 15.7 83 11.1 12.8 0 1013.1 0 24.8 29.5 49.1 129.3 129.6 448.0
04 09:00 15.9 72 9.75 11 4 1013.1 0 21.9 27.1 43.3 113.9 110.8 382.3
03 09:00 20.1 86 14.95 17.8 0 1013.1 0.4 32.8 34.7 62.9 166.1 176.4 611.8
02 09:00 23.1 35 7.23 6.8 11 1013.1 0 16.3 21.4 30.7 80.4 71.9 246.7
01 09:00 16.8 55 7.86 7.9 0 1013.1 0 17.9 23.9 35.5 93.0 85.4 293.4
31 09:00 13.7 67 7.93 7.8 0 1013.1 0 18.2 24.8 37.2 97.5 89.8 308.2
30 09:00 12.1 75 8.04 7.8 4 1013.1 0.4 18.5 25.5 38.4 100.6 93.1 319.6
29 09:00 12.4 88 9.62 10.5 22 1013.1 14 21.8 28.0 44.8 117.7 114.2 393.5
28 09:00 18 82 12.59 14.9 4 1013.1 0.2 27.9 31.2 54.0 142.4 146.6 507.4
27 09:00 20.7 26 4.68 0.8 22 1013.1 0 11.1 18.6 23.2 60.3 46.3 156.3
26 09:00 16 48 6.54 5 15 1013.1 0 15.1 22.1 31.0 81.0 70.2 240.1
25 09:00 11.6 70 7.28 6.3 0 1013.1 0.5 16.9 24.4 35.6 93.2 83.7 286.7
24 09:00 15 71 9.1 9.8 4 1013.1 0 20.6 26.3 41.2 108.2 103.4 356.3
23 09:00 15.4 66 8.67 9.2 22 1013.1 0 19.7 25.5 39.3 103.1 97.3 334.8
22 09:00 15.7 80 10.7 12.2 4 1013.1 0 24.0 28.8 47.4 124.7 124.1 428.5
21 09:00 18.4 72 11.32 13.3 0 1013.1 0.1 25.1 28.9 48.3 127.3 128.1 443.1
20 09:00 16.3 49 6.8 5.7 30 1013.1 0 15.7 22.4 31.8 83.2 73.1 250.0
19 09:00 12.6 77 8.52 8.8 4 1013.1 0 19.5 26.1 40.1 105.2 98.9 339.9
18 09:00 14 85 10.25 11.6 4 1013.1 0 23.1 28.6 46.5 122.3 120.5 415.9
17 09:00 10.8 87 8.6 8.8 4 1013.1 0 19.7 26.8 41.3 108.5 102.3 351.7
16 09:00 13.2 61 7 5.8 4 1013.1 0.8 16.2 23.5 33.8 88.5 78.5 268.6
15 09:00 12.7 80 8.91 9.3 4 1013.1 8 20.3 26.7 41.6 109.3 104.0 357.9
14 09:00 10.8 90 8.9 9.2 4 1013.1 1 20.4 27.3 42.6 111.9 106.4 366.2
13 09:00 13.5 73 8.54 8.7 4 1013.1 0.1 19.5 25.9 39.7 104.2 98.0 337.0
12 09:00 10.1 63 5.96 3.5 4 1013.1 0 14.1 22.7 31.1 81.2 68.3 232.6
11 09:00 11.1 70 7.05 5.9 4 1013.1 1 16.4 24.2 34.9 91.4 81.2 278.1
10 09:00 13.2 56 6.43 4.7 4 1013.1 0.1 15.0 22.7 31.7 82.7 71.4 243.8
09 09:00 15.3 52 6.79 5.7 4 1013.1 0 15.7 22.7 32.2 84.1 73.9 252.7
08 09:00 13.1 64 7.3 6.6 11 1013.1 0 16.8 24.0 35.0 91.6 82.4 282.2
07 09:00 13.6 55 6.47 4.7 15 1013.1 0 15.1 22.6 31.7 82.7 71.5 244.3
06 09:00 12.4 76 8.3 8.4 4 1013.1 0 19.0 25.8 39.3 103.1 96.2 330.5
05 09:00 13.8 63 7.51 7 15 1013.1 1 17.3 24.2 35.5 93.0 84.3 289.0
04 09:00 14.2 53 6.47 4.7 44 1013.1 0.2 15.0 22.5 31.4 82.1 71.0 242.5
03 09:00 16 84 11.44 13.3 4 1013.1 25.5 30.0 50.4 132.6 133.9 463.0
02 09:00 15 68 8.72 9.1 0 1013.1 0.1 19.8 25.7 39.7 104.1 98.4 338.8
01 09:00 13.9 83 9.95 11.1 30 1013.1 4 22.5 28.1 45.3 119.1 116.5 401.9
30 09:00 13 96 10.89 12.4 4 1013.1 33 24.6 30.0 49.9 131.4 131.3 453.3
29 09:00 16 76 10.35 11.8 4 1013.1 2 23.2 28.1 45.7 120.3 118.8 410.1
28 09:00 16.2 34 4.69 0.5 4 1013.1 0 11.2 19.5 24.5 63.7 49.0 165.4
27 09:00 16 32 4.36 -0.6 7 1013.1 0 10.5 19.1 23.5 60.9 45.5 153.1
26 09:00 11.4 60 6.16 4 4 1013.1 0.4 14.5 22.7 31.4 81.9 69.7 237.5
25 09:00 12.2 82 8.85 9.2 4 1013.1 1 20.2 26.8 41.6 109.3 103.8 357.3
24 09:00 16.3 64 8.88 9.6 4 1013.1 0 20.1 25.6 39.7 104.1 98.9 340.5
23 09:00 12 77 8.21 8.1 4 1013.1 0 18.8 25.8 39.1 102.6 95.5 328.0
22 09:00 14.2 71 8.67 9.1 15 1013.1 0.1 19.7 25.9 39.9 104.7 98.8 340.0
21 09:00 12.7 57 6.35 4.4 22 1013.1 7 14.8 22.7 31.6 82.5 70.9 241.9
20 09:00 13.6 52 6.12 3.9 30 1013.1 2 14.3 22.1 30.4 79.3 67.3 229.4
19 09:00 15.1 66 8.51 8.8 30 1013.1 0.3 19.3 25.4 38.8 101.8 95.6 328.8
18 09:00 15 64 8.21 8.2 22 1013.1 0 18.7 24.9 37.7 98.8 91.9 315.7
17 09:00 19.3 49 8.13 8.5 30 1013.1 0 18.3 23.7 35.4 92.8 86.0 295.8
16 09:00 12.1 71 7.61 7.1 4 1013.1 0 17.6 24.8 36.7 96.1 87.4 299.9
15 09:00 10.7 64 6.29 4.2 4 1013.1 0 14.8 23.1 32.1 83.9 71.9 245.4
14 09:00 10.9 75 7.46 6.7 4 1013.1 0.6 17.3 24.9 36.6 95.9 86.8 297.5
13 09:00 12.4 82 8.96 9.4 15 1013.1 8 20.4 26.9 42.0 110.3 105.1 361.6
12 09:00 13.1 68 7.76 7.4 22 1013.1 0.9 17.8 24.7 36.8 96.4 88.3 302.9
11 09:00 19.7 62 10.53 12.4 4 1013.1 0 23.4 27.2 44.4 116.7 115.6 399.4
10 09:00 13.3 82 9.47 10.4 4 1013.1 0 21.5 27.5 43.6 114.6 110.8 381.7
09 09:00 22.1 34 6.64 5.5 30 1013.1 0 15.1 20.9 29.1 76.0 66.2 226.7
08 09:00 12.9 74 8.34 8.5 22 1013.1 0 19.1 25.7 39.2 102.8 96.1 330.2
07 09:00 13.1 85 9.7 10.6 4 1013.1 0 22.0 27.9 44.7 117.5 114.2 393.8
06 09:00 14 84 10.13 11.4 11 1013.1 0.2 22.9 28.4 46.0 121.0 118.9 410.1
05 09:00 12.1 80 8.58 8.7 4 1013.1 4 19.6 26.4 40.6 106.5 100.3 344.9
04 09:00 12.2 82 8.85 9.2 11 1013.1 0.2 20.2 26.8 41.6 109.3 103.8 357.3
03 09:00 14.1 78 9.47 10.3 7 1013.1 0.2 21.4 27.2 43.2 113.5 109.6 377.8
02 09:00 19.2 34 5.61 3.2 22 1013.1 0 13.0 20.1 26.7 69.4 57.1 194.3
01 09:00 14.3 75 9.21 9.9 15 1013.1 0 20.9 26.7 42.0 110.3 105.8 364.6
31 09:00 15.8 55 7.4 6.9 15 1013.1 0 16.9 23.5 34.2 89.6 80.8 277.1
30 09:00 14.3 71 8.72 9.2 4 1013.1 0.1 19.8 25.9 40.0 105.1 99.3 341.8
29 09:00 12.4 81 8.85 9.2 4 1013.1 2 20.2 26.7 41.5 109.1 103.6 356.4
28 09:00 10.7 59 5.8 3.1 4 1013.1 0 13.7 22.3 30.3 79.0 65.8 223.9
27 09:00 6.8 85 6.5 4.5 0 1013.1 0.1 15.4 24.4 34.6 90.5 78.4 267.6
26 09:00 8.6 77 6.62 4.8 4 1013.1 3 15.6 24.2 34.3 89.7 78.2 267.0
25 09:00 10.7 83 8.15 8 4 1013.1 3 18.8 26.1 39.5 103.7 96.3 330.6

Last Refresh: 03-Dec-2021 09:10:00

Bureau of Meteorology